sensor_id;sensor_type;location;lat;lon;timestamp;temperature;humidity
2995;DHT22;35277;49.890;8.222;2023-03-23T00:01:58;22.30;67.10
2995;DHT22;35277;49.890;8.222;2023-03-23T00:04:25;22.30;67.10
2995;DHT22;35277;49.890;8.222;2023-03-23T00:06:53;22.30;67.10
2995;DHT22;35277;49.890;8.222;2023-03-23T00:09:20;22.30;67.10
2995;DHT22;35277;49.890;8.222;2023-03-23T00:11:49;22.30;67.10
2995;DHT22;35277;49.890;8.222;2023-03-23T00:14:17;22.30;67.10
2995;DHT22;35277;49.890;8.222;2023-03-23T00:16:48;22.30;67.10
2995;DHT22;35277;49.890;8.222;2023-03-23T00:19:16;22.30;67.10
2995;DHT22;35277;49.890;8.222;2023-03-23T00:21:45;22.30;67.10
2995;DHT22;35277;49.890;8.222;2023-03-23T00:24:15;22.30;67.10
2995;DHT22;35277;49.890;8.222;2023-03-23T00:26:44;22.30;67.10
2995;DHT22;35277;49.890;8.222;2023-03-23T00:29:14;22.30;67.80
2995;DHT22;35277;49.890;8.222;2023-03-23T00:31:42;22.30;67.00
2995;DHT22;35277;49.890;8.222;2023-03-23T00:34:13;22.30;67.00
2995;DHT22;35277;49.890;8.222;2023-03-23T00:36:43;22.30;67.00
2995;DHT22;35277;49.890;8.222;2023-03-23T00:39:13;22.30;67.00
2995;DHT22;35277;49.890;8.222;2023-03-23T00:41:42;22.30;67.00
2995;DHT22;35277;49.890;8.222;2023-03-23T00:44:10;22.30;67.00
2995;DHT22;35277;49.890;8.222;2023-03-23T00:46:42;22.30;67.00
2995;DHT22;35277;49.890;8.222;2023-03-23T00:49:11;22.30;67.00
2995;DHT22;35277;49.890;8.222;2023-03-23T00:51:39;22.30;67.10
2995;DHT22;35277;49.890;8.222;2023-03-23T00:54:06;22.30;67.00
2995;DHT22;35277;49.890;8.222;2023-03-23T00:56:35;22.30;67.00
2995;DHT22;35277;49.890;8.222;2023-03-23T00:59:02;22.30;67.10
2995;DHT22;35277;49.890;8.222;2023-03-23T01:01:29;22.30;67.40
2995;DHT22;35277;49.890;8.222;2023-03-23T01:03:57;22.30;67.10
2995;DHT22;35277;49.890;8.222;2023-03-23T01:06:27;22.30;67.00
2995;DHT22;35277;49.890;8.222;2023-03-23T01:08:57;22.30;67.00
2995;DHT22;35277;49.890;8.222;2023-03-23T01:11:25;22.30;67.00
2995;DHT22;35277;49.890;8.222;2023-03-23T01:13:53;22.30;67.00
2995;DHT22;35277;49.890;8.222;2023-03-23T01:16:20;22.30;67.00
2995;DHT22;35277;49.890;8.222;2023-03-23T01:18:47;22.30;67.00
2995;DHT22;35277;49.890;8.222;2023-03-23T01:21:16;22.30;67.10
2995;DHT22;35277;49.890;8.222;2023-03-23T01:23:44;22.30;67.00
2995;DHT22;35277;49.890;8.222;2023-03-23T01:26:13;22.30;67.00
2995;DHT22;35277;49.890;8.222;2023-03-23T01:28:40;22.30;67.00
2995;DHT22;35277;49.890;8.222;2023-03-23T01:31:11;22.30;67.80
2995;DHT22;35277;49.890;8.222;2023-03-23T01:33:40;22.30;67.00
2995;DHT22;35277;49.890;8.222;2023-03-23T01:36:10;22.30;67.00
2995;DHT22;35277;49.890;8.222;2023-03-23T01:38:37;22.30;67.00
2995;DHT22;35277;49.890;8.222;2023-03-23T01:41:05;22.30;67.00
2995;DHT22;35277;49.890;8.222;2023-03-23T01:43:32;22.30;67.00
2995;DHT22;35277;49.890;8.222;2023-03-23T01:45:59;22.30;67.00
2995;DHT22;35277;49.890;8.222;2023-03-23T01:48:29;22.20;66.90
2995;DHT22;35277;49.890;8.222;2023-03-23T01:51:03;22.20;66.90
2995;DHT22;35277;49.890;8.222;2023-03-23T01:53:33;22.30;67.00
2995;DHT22;35277;49.890;8.222;2023-03-23T01:56:02;22.20;66.90
2995;DHT22;35277;49.890;8.222;2023-03-23T01:58:32;22.20;66.90
2995;DHT22;35277;49.890;8.222;2023-03-23T02:01:03;22.30;67.00
2995;DHT22;35277;49.890;8.222;2023-03-23T02:03:34;22.20;66.90
2995;DHT22;35277;49.890;8.222;2023-03-23T02:06:05;22.20;66.90
2995;DHT22;35277;49.890;8.222;2023-03-23T02:08:41;22.20;66.90
2995;DHT22;35277;49.890;8.222;2023-03-23T02:11:13;22.20;66.90
2995;DHT22;35277;49.890;8.222;2023-03-23T02:13:41;22.30;67.00
2995;DHT22;35277;49.890;8.222;2023-03-23T02:16:14;22.20;66.90
2995;DHT22;35277;49.890;8.222;2023-03-23T02:18:56;22.20;66.90
2995;DHT22;35277;49.890;8.222;2023-03-23T02:21:44;22.20;66.90
2995;DHT22;35277;49.890;8.222;2023-03-23T02:24:30;22.20;66.90
2995;DHT22;35277;49.890;8.222;2023-03-23T02:27:06;22.20;66.90
2995;DHT22;35277;49.890;8.222;2023-03-23T02:32:53;22.20;67.00
2995;DHT22;35277;49.890;8.222;2023-03-23T02:35:27;22.20;66.90
2995;DHT22;35277;49.890;8.222;2023-03-23T02:37:59;22.20;66.90
2995;DHT22;35277;49.890;8.222;2023-03-23T02:40:32;22.20;66.90
2995;DHT22;35277;49.890;8.222;2023-03-23T02:43:00;22.20;66.90
2995;DHT22;35277;49.890;8.222;2023-03-23T02:45:31;22.20;66.90
2995;DHT22;35277;49.890;8.222;2023-03-23T02:48:02;22.20;66.90
2995;DHT22;35277;49.890;8.222;2023-03-23T02:50:33;22.20;66.90
2995;DHT22;35277;49.890;8.222;2023-03-23T02:53:05;22.20;66.90
2995;DHT22;35277;49.890;8.222;2023-03-23T02:55:34;22.20;66.90
2995;DHT22;35277;49.890;8.222;2023-03-23T02:58:06;22.20;66.90
2995;DHT22;35277;49.890;8.222;2023-03-23T03:00:33;22.20;66.90
2995;DHT22;35277;49.890;8.222;2023-03-23T03:03:01;22.20;66.90
2995;DHT22;35277;49.890;8.222;2023-03-23T03:05:38;22.20;66.90
2995;DHT22;35277;49.890;8.222;2023-03-23T03:08:14;22.20;66.90
2995;DHT22;35277;49.890;8.222;2023-03-23T03:10:48;22.20;66.90
2995;DHT22;35277;49.890;8.222;2023-03-23T03:13:25;22.20;66.90
2995;DHT22;35277;49.890;8.222;2023-03-23T03:15:58;22.20;66.90
2995;DHT22;35277;49.890;8.222;2023-03-23T03:18:28;22.20;66.90
2995;DHT22;35277;49.890;8.222;2023-03-23T03:21:00;22.20;66.90
2995;DHT22;35277;49.890;8.222;2023-03-23T03:23:28;22.20;66.90
2995;DHT22;35277;49.890;8.222;2023-03-23T03:25:59;22.20;66.90
2995;DHT22;35277;49.890;8.222;2023-03-23T03:28:39;22.20;66.90
2995;DHT22;35277;49.890;8.222;2023-03-23T03:31:08;22.20;66.90
2995;DHT22;35277;49.890;8.222;2023-03-23T03:33:36;22.20;66.90
2995;DHT22;35277;49.890;8.222;2023-03-23T03:36:05;22.20;66.90
2995;DHT22;35277;49.890;8.222;2023-03-23T03:38:41;22.20;66.90
2995;DHT22;35277;49.890;8.222;2023-03-23T03:41:09;22.20;66.90
2995;DHT22;35277;49.890;8.222;2023-03-23T03:43:36;22.20;66.90
2995;DHT22;35277;49.890;8.222;2023-03-23T03:46:04;22.20;66.90
2995;DHT22;35277;49.890;8.222;2023-03-23T03:48:31;22.20;66.90
2995;DHT22;35277;49.890;8.222;2023-03-23T03:50:58;22.20;66.90
2995;DHT22;35277;49.890;8.222;2023-03-23T03:53:30;22.20;66.90
2995;DHT22;35277;49.890;8.222;2023-03-23T03:55:57;22.20;66.90
2995;DHT22;35277;49.890;8.222;2023-03-23T03:58:28;22.20;66.90
2995;DHT22;35277;49.890;8.222;2023-03-23T04:01:11;22.20;66.90
2995;DHT22;35277;49.890;8.222;2023-03-23T04:03:39;22.20;66.90
2995;DHT22;35277;49.890;8.222;2023-03-23T04:06:15;22.20;66.90
2995;DHT22;35277;49.890;8.222;2023-03-23T04:08:43;22.20;67.00
2995;DHT22;35277;49.890;8.222;2023-03-23T04:11:13;22.20;66.90
2995;DHT22;35277;49.890;8.222;2023-03-23T04:13:40;22.20;66.90
2995;DHT22;35277;49.890;8.222;2023-03-23T04:16:17;22.20;67.00
2995;DHT22;35277;49.890;8.222;2023-03-23T04:18:44;22.20;66.90
2995;DHT22;35277;49.890;8.222;2023-03-23T04:21:14;22.20;67.00
2995;DHT22;35277;49.890;8.222;2023-03-23T04:23:44;22.20;66.90
2995;DHT22;35277;49.890;8.222;2023-03-23T04:26:13;22.20;67.00
2995;DHT22;35277;49.890;8.222;2023-03-23T04:28:44;22.20;67.00
2995;DHT22;35277;49.890;8.222;2023-03-23T04:31:43;22.20;66.90
2995;DHT22;35277;49.890;8.222;2023-03-23T04:34:22;22.20;66.90
2995;DHT22;35277;49.890;8.222;2023-03-23T04:36:51;22.20;66.90
2995;DHT22;35277;49.890;8.222;2023-03-23T04:39:24;22.20;66.90
2995;DHT22;35277;49.890;8.222;2023-03-23T04:41:54;22.20;66.90
2995;DHT22;35277;49.890;8.222;2023-03-23T04:44:26;22.20;66.90
2995;DHT22;35277;49.890;8.222;2023-03-23T04:47:09;22.20;66.90
2995;DHT22;35277;49.890;8.222;2023-03-23T04:49:43;22.20;66.90
2995;DHT22;35277;49.890;8.222;2023-03-23T04:52:20;22.20;66.90
2995;DHT22;35277;49.890;8.222;2023-03-23T04:54:53;22.20;66.90
2995;DHT22;35277;49.890;8.222;2023-03-23T04:57:21;22.20;66.90
2995;DHT22;35277;49.890;8.222;2023-03-23T05:00:09;22.20;66.90
2995;DHT22;35277;49.890;8.222;2023-03-23T05:02:43;22.20;67.00
2995;DHT22;35277;49.890;8.222;2023-03-23T05:05:14;22.20;67.00
2995;DHT22;35277;49.890;8.222;2023-03-23T05:07:41;22.20;67.60
2995;DHT22;35277;49.890;8.222;2023-03-23T05:10:11;22.20;67.10
2995;DHT22;35277;49.890;8.222;2023-03-23T05:12:39;22.20;67.20
2995;DHT22;35277;49.890;8.222;2023-03-23T05:15:09;22.20;67.20
2995;DHT22;35277;49.890;8.222;2023-03-23T05:17:37;22.20;67.20
2995;DHT22;35277;49.890;8.222;2023-03-23T05:20:15;22.20;67.20
2995;DHT22;35277;49.890;8.222;2023-03-23T05:22:47;22.20;67.20
2995;DHT22;35277;49.890;8.222;2023-03-23T05:25:19;22.20;67.20
2995;DHT22;35277;49.890;8.222;2023-03-23T05:27:51;22.20;67.60
2995;DHT22;35277;49.890;8.222;2023-03-23T05:30:35;22.20;67.30
2995;DHT22;35277;49.890;8.222;2023-03-23T05:33:04;22.20;67.20
2995;DHT22;35277;49.890;8.222;2023-03-23T05:35:45;22.20;67.20
2995;DHT22;35277;49.890;8.222;2023-03-23T05:38:15;22.20;67.20
2995;DHT22;35277;49.890;8.222;2023-03-23T05:40:45;22.20;67.20
2995;DHT22;35277;49.890;8.222;2023-03-23T05:43:18;22.20;67.30
2995;DHT22;35277;49.890;8.222;2023-03-23T05:46:00;22.20;67.20
2995;DHT22;35277;49.890;8.222;2023-03-23T05:48:29;22.20;67.20
2995;DHT22;35277;49.890;8.222;2023-03-23T05:50:57;22.20;67.20
2995;DHT22;35277;49.890;8.222;2023-03-23T05:53:25;22.20;67.20
2995;DHT22;35277;49.890;8.222;2023-03-23T05:55:58;22.20;67.20
2995;DHT22;35277;49.890;8.222;2023-03-23T05:58:42;22.20;67.20
2995;DHT22;35277;49.890;8.222;2023-03-23T06:01:09;22.20;67.20
2995;DHT22;35277;49.890;8.222;2023-03-23T06:03:39;22.20;67.20
2995;DHT22;35277;49.890;8.222;2023-03-23T06:06:14;22.20;67.20
2995;DHT22;35277;49.890;8.222;2023-03-23T06:08:50;22.20;67.20
2995;DHT22;35277;49.890;8.222;2023-03-23T06:11:22;22.20;67.20
2995;DHT22;35277;49.890;8.222;2023-03-23T06:14:11;22.20;67.50
2995;DHT22;35277;49.890;8.222;2023-03-23T06:16:38;22.20;67.60
2995;DHT22;35277;49.890;8.222;2023-03-23T06:19:09;22.20;67.70
2995;DHT22;35277;49.890;8.222;2023-03-23T06:21:42;22.20;67.70
2995;DHT22;35277;49.890;8.222;2023-03-23T06:24:18;22.20;67.80
2995;DHT22;35277;49.890;8.222;2023-03-23T06:26:46;22.20;67.80
2995;DHT22;35277;49.890;8.222;2023-03-23T06:29:17;22.20;67.90
2995;DHT22;35277;49.890;8.222;2023-03-23T06:31:51;22.20;68.00
2995;DHT22;35277;49.890;8.222;2023-03-23T06:34:20;22.30;68.10
2995;DHT22;35277;49.890;8.222;2023-03-23T06:37:06;22.30;68.20
2995;DHT22;35277;49.890;8.222;2023-03-23T06:39:44;22.30;68.20
2995;DHT22;35277;49.890;8.222;2023-03-23T06:42:23;22.30;68.20
2995;DHT22;35277;49.890;8.222;2023-03-23T06:45:08;22.30;68.30
2995;DHT22;35277;49.890;8.222;2023-03-23T06:47:41;22.30;68.30
2995;DHT22;35277;49.890;8.222;2023-03-23T06:50:09;22.30;68.40
2995;DHT22;35277;49.890;8.222;2023-03-23T06:52:36;22.30;68.40
2995;DHT22;35277;49.890;8.222;2023-03-23T06:55:04;22.30;68.50
2995;DHT22;35277;49.890;8.222;2023-03-23T06:57:32;22.30;68.50
2995;DHT22;35277;49.890;8.222;2023-03-23T06:59:59;22.30;68.50
2995;DHT22;35277;49.890;8.222;2023-03-23T07:02:27;22.30;68.50
2995;DHT22;35277;49.890;8.222;2023-03-23T07:04:55;22.30;68.60
2995;DHT22;35277;49.890;8.222;2023-03-23T07:07:25;22.30;68.60
2995;DHT22;35277;49.890;8.222;2023-03-23T07:10:12;22.30;68.60
2995;DHT22;35277;49.890;8.222;2023-03-23T07:12:41;22.30;68.50
2995;DHT22;35277;49.890;8.222;2023-03-23T07:15:10;22.30;68.50
2995;DHT22;35277;49.890;8.222;2023-03-23T07:17:40;22.30;68.50
2995;DHT22;35277;49.890;8.222;2023-03-23T07:20:22;22.30;68.50
2995;DHT22;35277;49.890;8.222;2023-03-23T07:22:49;22.30;68.50
2995;DHT22;35277;49.890;8.222;2023-03-23T07:25:32;22.30;68.50
2995;DHT22;35277;49.890;8.222;2023-03-23T07:28:01;22.30;68.50
2995;DHT22;35277;49.890;8.222;2023-03-23T07:30:29;22.30;68.40
2995;DHT22;35277;49.890;8.222;2023-03-23T07:32:57;22.30;68.40
2995;DHT22;35277;49.890;8.222;2023-03-23T07:35:25;22.30;68.40
2995;DHT22;35277;49.890;8.222;2023-03-23T07:37:59;22.30;68.40
2995;DHT22;35277;49.890;8.222;2023-03-23T07:40:28;22.30;68.30
2995;DHT22;35277;49.890;8.222;2023-03-23T07:43:03;22.30;68.30
2995;DHT22;35277;49.890;8.222;2023-03-23T07:45:50;22.30;68.30
2995;DHT22;35277;49.890;8.222;2023-03-23T07:48:18;22.30;68.30
2995;DHT22;35277;49.890;8.222;2023-03-23T07:50:45;22.30;68.30
2995;DHT22;35277;49.890;8.222;2023-03-23T07:53:13;22.30;68.20
2995;DHT22;35277;49.890;8.222;2023-03-23T07:55:43;22.30;68.30
2995;DHT22;35277;49.890;8.222;2023-03-23T07:58:31;22.30;68.30
2995;DHT22;35277;49.890;8.222;2023-03-23T08:00:58;22.30;68.30
2995;DHT22;35277;49.890;8.222;2023-03-23T08:03:29;22.30;68.30
2995;DHT22;35277;49.890;8.222;2023-03-23T08:06:15;22.30;68.20
2995;DHT22;35277;49.890;8.222;2023-03-23T08:08:51;22.30;68.20
2995;DHT22;35277;49.890;8.222;2023-03-23T08:11:53;22.30;68.20
2995;DHT22;35277;49.890;8.222;2023-03-23T08:14:40;22.30;68.20
2995;DHT22;35277;49.890;8.222;2023-03-23T08:17:40;22.30;68.20
2995;DHT22;35277;49.890;8.222;2023-03-23T08:20:26;22.30;68.20
2995;DHT22;35277;49.890;8.222;2023-03-23T08:22:59;22.30;68.20
2995;DHT22;35277;49.890;8.222;2023-03-23T08:25:45;22.30;68.20
2995;DHT22;35277;49.890;8.222;2023-03-23T08:28:39;22.30;68.20
2995;DHT22;35277;49.890;8.222;2023-03-23T08:31:22;22.30;68.20
2995;DHT22;35277;49.890;8.222;2023-03-23T08:33:56;22.30;68.20
2995;DHT22;35277;49.890;8.222;2023-03-23T08:36:52;22.30;68.20
2995;DHT22;35277;49.890;8.222;2023-03-23T08:39:37;22.30;68.20
2995;DHT22;35277;49.890;8.222;2023-03-23T08:42:27;22.30;68.20
2995;DHT22;35277;49.890;8.222;2023-03-23T08:45:14;22.30;68.20
2995;DHT22;35277;49.890;8.222;2023-03-23T08:47:46;22.30;68.30
2995;DHT22;35277;49.890;8.222;2023-03-23T08:50:42;22.30;68.30
2995;DHT22;35277;49.890;8.222;2023-03-23T08:53:27;22.30;68.20
2995;DHT22;35277;49.890;8.222;2023-03-23T08:56:22;22.30;68.20
2995;DHT22;35277;49.890;8.222;2023-03-23T08:59:15;22.30;68.20
2995;DHT22;35277;49.890;8.222;2023-03-23T09:01:53;22.30;68.20
2995;DHT22;35277;49.890;8.222;2023-03-23T09:04:26;22.30;68.20
2995;DHT22;35277;49.890;8.222;2023-03-23T09:07:22;22.30;68.20
2995;DHT22;35277;49.890;8.222;2023-03-23T09:09:49;22.30;68.10
2995;DHT22;35277;49.890;8.222;2023-03-23T09:12:16;22.40;68.30
2995;DHT22;35277;49.890;8.222;2023-03-23T09:14:44;22.40;68.20
2995;DHT22;35277;49.890;8.222;2023-03-23T09:17:10;22.40;68.20
2995;DHT22;35277;49.890;8.222;2023-03-23T09:19:38;22.40;68.20
2995;DHT22;35277;49.890;8.222;2023-03-23T09:22:05;22.40;68.20
2995;DHT22;35277;49.890;8.222;2023-03-23T09:24:32;22.40;68.20
2995;DHT22;35277;49.890;8.222;2023-03-23T09:26:59;22.40;68.20
2995;DHT22;35277;49.890;8.222;2023-03-23T09:29:25;22.40;68.20
2995;DHT22;35277;49.890;8.222;2023-03-23T09:31:52;22.40;68.10
2995;DHT22;35277;49.890;8.222;2023-03-23T09:34:19;22.50;68.20
2995;DHT22;35277;49.890;8.222;2023-03-23T09:36:49;22.50;68.20
2995;DHT22;35277;49.890;8.222;2023-03-23T09:39:17;22.50;68.20
2995;DHT22;35277;49.890;8.222;2023-03-23T09:42:14;22.50;68.00
2995;DHT22;35277;49.890;8.222;2023-03-23T09:44:57;22.40;66.90
2995;DHT22;35277;49.890;8.222;2023-03-23T09:47:33;22.30;66.60
2995;DHT22;35277;49.890;8.222;2023-03-23T09:50:08;22.20;66.60
2995;DHT22;35277;49.890;8.222;2023-03-23T09:52:43;22.10;66.00
2995;DHT22;35277;49.890;8.222;2023-03-23T09:55:12;22.00;66.00
2995;DHT22;35277;49.890;8.222;2023-03-23T09:57:45;21.90;66.00
2995;DHT22;35277;49.890;8.222;2023-03-23T10:00:16;21.70;65.80
2995;DHT22;35277;49.890;8.222;2023-03-23T10:02:49;21.70;65.70
2995;DHT22;35277;49.890;8.222;2023-03-23T10:05:30;21.50;65.70
2995;DHT22;35277;49.890;8.222;2023-03-23T10:08:00;21.50;65.70
2995;DHT22;35277;49.890;8.222;2023-03-23T10:10:35;21.40;65.40
2995;DHT22;35277;49.890;8.222;2023-03-23T10:13:07;21.30;65.40
2995;DHT22;35277;49.890;8.222;2023-03-23T10:15:39;21.20;65.30
2995;DHT22;35277;49.890;8.222;2023-03-23T10:18:13;21.10;65.30
2995;DHT22;35277;49.890;8.222;2023-03-23T10:20:46;21.10;65.60
2995;DHT22;35277;49.890;8.222;2023-03-23T10:23:34;21.10;65.70
2995;DHT22;35277;49.890;8.222;2023-03-23T10:26:06;21.10;65.80
2995;DHT22;35277;49.890;8.222;2023-03-23T10:28:37;21.20;65.90
2995;DHT22;35277;49.890;8.222;2023-03-23T10:31:07;21.30;65.90
2995;DHT22;35277;49.890;8.222;2023-03-23T10:33:39;21.40;66.00
2995;DHT22;35277;49.890;8.222;2023-03-23T10:36:10;21.40;65.90
2995;DHT22;35277;49.890;8.222;2023-03-23T10:38:44;21.50;66.00
2995;DHT22;35277;49.890;8.222;2023-03-23T10:41:14;21.60;66.00
2995;DHT22;35277;49.890;8.222;2023-03-23T10:43:42;21.60;66.00
2995;DHT22;35277;49.890;8.222;2023-03-23T10:46:22;21.70;66.10
2995;DHT22;35277;49.890;8.222;2023-03-23T10:48:52;21.70;66.10
2995;DHT22;35277;49.890;8.222;2023-03-23T10:51:27;21.80;66.20
2995;DHT22;35277;49.890;8.222;2023-03-23T10:53:59;21.80;66.20
2995;DHT22;35277;49.890;8.222;2023-03-23T10:56:29;21.80;66.20
2995;DHT22;35277;49.890;8.222;2023-03-23T10:59:11;21.90;66.30
2995;DHT22;35277;49.890;8.222;2023-03-23T11:01:41;21.90;66.30
2995;DHT22;35277;49.890;8.222;2023-03-23T11:04:12;22.00;66.40
2995;DHT22;35277;49.890;8.222;2023-03-23T11:06:44;22.00;66.40
2995;DHT22;35277;49.890;8.222;2023-03-23T11:09:15;22.10;66.60
2995;DHT22;35277;49.890;8.222;2023-03-23T11:11:48;22.10;66.60
2995;DHT22;35277;49.890;8.222;2023-03-23T11:14:17;22.10;66.50
2995;DHT22;35277;49.890;8.222;2023-03-23T11:16:50;22.20;66.70
2995;DHT22;35277;49.890;8.222;2023-03-23T11:19:22;22.20;66.70
2995;DHT22;35277;49.890;8.222;2023-03-23T11:21:51;22.20;66.70
2995;DHT22;35277;49.890;8.222;2023-03-23T11:24:23;22.20;66.70
2995;DHT22;35277;49.890;8.222;2023-03-23T11:26:52;22.20;66.70
2995;DHT22;35277;49.890;8.222;2023-03-23T11:29:21;22.30;66.70
2995;DHT22;35277;49.890;8.222;2023-03-23T11:31:52;22.30;66.80
2995;DHT22;35277;49.890;8.222;2023-03-23T11:34:21;22.30;66.80
2995;DHT22;35277;49.890;8.222;2023-03-23T11:36:50;22.30;66.70
2995;DHT22;35277;49.890;8.222;2023-03-23T11:39:28;22.30;66.80
2995;DHT22;35277;49.890;8.222;2023-03-23T11:41:57;22.30;66.80
2995;DHT22;35277;49.890;8.222;2023-03-23T11:44:32;22.30;66.70
2995;DHT22;35277;49.890;8.222;2023-03-23T11:47:01;22.30;66.70
2995;DHT22;35277;49.890;8.222;2023-03-23T11:49:40;22.30;66.70
2995;DHT22;35277;49.890;8.222;2023-03-23T11:52:13;22.30;66.70
2995;DHT22;35277;49.890;8.222;2023-03-23T11:54:48;22.30;66.70
2995;DHT22;35277;49.890;8.222;2023-03-23T11:57:17;22.40;67.00
2995;DHT22;35277;49.890;8.222;2023-03-23T11:59:44;22.40;66.90
2995;DHT22;35277;49.890;8.222;2023-03-23T12:08:22;22.40;66.90
2995;DHT22;35277;49.890;8.222;2023-03-23T12:10:57;22.40;66.90
2995;DHT22;35277;49.890;8.222;2023-03-23T12:13:38;22.40;67.00
2995;DHT22;35277;49.890;8.222;2023-03-23T12:16:13;22.40;67.00
2995;DHT22;35277;49.890;8.222;2023-03-23T12:18:50;22.40;67.00
2995;DHT22;35277;49.890;8.222;2023-03-23T12:21:28;22.40;67.00
2995;DHT22;35277;49.890;8.222;2023-03-23T12:24:05;22.40;67.00
2995;DHT22;35277;49.890;8.222;2023-03-23T12:26:39;22.40;67.00
2995;DHT22;35277;49.890;8.222;2023-03-23T12:29:29;22.40;67.00
2995;DHT22;35277;49.890;8.222;2023-03-23T12:35:25;22.40;67.00
2995;DHT22;35277;49.890;8.222;2023-03-23T12:38:03;22.50;67.20
2995;DHT22;35277;49.890;8.222;2023-03-23T12:40:51;22.50;67.10
2995;DHT22;35277;49.890;8.222;2023-03-23T12:43:28;22.50;67.10
2995;DHT22;35277;49.890;8.222;2023-03-23T12:46:06;22.50;67.10
2995;DHT22;35277;49.890;8.222;2023-03-23T12:48:39;22.50;67.10
2995;DHT22;35277;49.890;8.222;2023-03-23T12:51:12;22.50;67.10
2995;DHT22;35277;49.890;8.222;2023-03-23T12:53:48;22.50;67.10
2995;DHT22;35277;49.890;8.222;2023-03-23T12:56:19;22.50;67.10
2995;DHT22;35277;49.890;8.222;2023-03-23T12:58:53;22.50;67.10
2995;DHT22;35277;49.890;8.222;2023-03-23T13:01:24;22.60;67.20
2995;DHT22;35277;49.890;8.222;2023-03-23T13:03:56;22.60;67.20
2995;DHT22;35277;49.890;8.222;2023-03-23T13:06:29;22.60;67.20
2995;DHT22;35277;49.890;8.222;2023-03-23T13:09:00;22.60;67.20
2995;DHT22;35277;49.890;8.222;2023-03-23T13:11:32;22.60;67.20
2995;DHT22;35277;49.890;8.222;2023-03-23T13:14:09;22.50;67.10
2995;DHT22;35277;49.890;8.222;2023-03-23T13:16:46;22.60;67.20
2995;DHT22;35277;49.890;8.222;2023-03-23T13:19:22;22.60;67.20
2995;DHT22;35277;49.890;8.222;2023-03-23T13:21:55;22.60;67.20
2995;DHT22;35277;49.890;8.222;2023-03-23T13:24:28;22.60;67.20
2995;DHT22;35277;49.890;8.222;2023-03-23T13:26:56;22.50;67.10
2995;DHT22;35277;49.890;8.222;2023-03-23T13:29:25;22.60;67.20
2995;DHT22;35277;49.890;8.222;2023-03-23T13:32:05;22.60;67.20
2995;DHT22;35277;49.890;8.222;2023-03-23T13:34:32;22.60;67.30
2995;DHT22;35277;49.890;8.222;2023-03-23T13:37:00;22.60;67.20
2995;DHT22;35277;49.890;8.222;2023-03-23T13:39:30;22.50;67.10
2995;DHT22;35277;49.890;8.222;2023-03-23T13:42:02;22.50;67.10
2995;DHT22;35277;49.890;8.222;2023-03-23T13:44:43;22.60;67.20
2995;DHT22;35277;49.890;8.222;2023-03-23T13:47:27;22.60;67.20
2995;DHT22;35277;49.890;8.222;2023-03-23T13:49:58;22.50;67.10
2995;DHT22;35277;49.890;8.222;2023-03-23T13:52:37;22.60;67.20
2995;DHT22;35277;49.890;8.222;2023-03-23T13:55:29;22.60;67.20
2995;DHT22;35277;49.890;8.222;2023-03-23T13:57:57;22.60;67.20
2995;DHT22;35277;49.890;8.222;2023-03-23T14:00:35;22.60;67.20
2995;DHT22;35277;49.890;8.222;2023-03-23T14:03:12;22.50;67.10
2995;DHT22;35277;49.890;8.222;2023-03-23T14:05:40;22.50;67.10
2995;DHT22;35277;49.890;8.222;2023-03-23T14:08:21;22.60;67.20
2995;DHT22;35277;49.890;8.222;2023-03-23T14:10:53;22.50;67.10
2995;DHT22;35277;49.890;8.222;2023-03-23T14:13:25;22.60;68.10
2995;DHT22;35277;49.890;8.222;2023-03-23T14:15:58;22.50;67.20
2995;DHT22;35277;49.890;8.222;2023-03-23T14:18:30;22.50;67.20
2995;DHT22;35277;49.890;8.222;2023-03-23T14:20:57;22.50;67.20
2995;DHT22;35277;49.890;8.222;2023-03-23T14:23:25;22.50;67.20
2995;DHT22;35277;49.890;8.222;2023-03-23T14:25:57;22.50;67.20
2995;DHT22;35277;49.890;8.222;2023-03-23T14:28:31;22.50;67.20
2995;DHT22;35277;49.890;8.222;2023-03-23T14:31:00;22.50;67.20
2995;DHT22;35277;49.890;8.222;2023-03-23T14:33:26;22.50;67.20
2995;DHT22;35277;49.890;8.222;2023-03-23T14:35:56;22.50;67.20
2995;DHT22;35277;49.890;8.222;2023-03-23T14:38:24;22.50;67.20
2995;DHT22;35277;49.890;8.222;2023-03-23T14:40:54;22.50;67.20
2995;DHT22;35277;49.890;8.222;2023-03-23T14:43:26;22.50;67.20
2995;DHT22;35277;49.890;8.222;2023-03-23T14:45:56;22.50;67.30
2995;DHT22;35277;49.890;8.222;2023-03-23T14:48:26;22.50;67.20
2995;DHT22;35277;49.890;8.222;2023-03-23T14:50:56;22.50;67.30
2995;DHT22;35277;49.890;8.222;2023-03-23T14:53:25;22.50;67.30
2995;DHT22;35277;49.890;8.222;2023-03-23T14:55:59;22.50;67.20
2995;DHT22;35277;49.890;8.222;2023-03-23T14:58:26;22.50;67.20
2995;DHT22;35277;49.890;8.222;2023-03-23T15:00:57;22.50;67.20
2995;DHT22;35277;49.890;8.222;2023-03-23T15:03:27;22.50;67.30
2995;DHT22;35277;49.890;8.222;2023-03-23T15:05:56;22.50;67.30
2995;DHT22;35277;49.890;8.222;2023-03-23T15:08:27;22.50;67.30
2995;DHT22;35277;49.890;8.222;2023-03-23T15:11:03;22.50;67.30
2995;DHT22;35277;49.890;8.222;2023-03-23T15:13:31;22.50;67.20
2995;DHT22;35277;49.890;8.222;2023-03-23T15:16:03;22.50;67.20
2995;DHT22;35277;49.890;8.222;2023-03-23T15:18:35;22.50;67.30
2995;DHT22;35277;49.890;8.222;2023-03-23T15:21:10;22.50;67.30
2995;DHT22;35277;49.890;8.222;2023-03-23T15:23:41;22.50;67.30
2995;DHT22;35277;49.890;8.222;2023-03-23T15:26:26;22.50;67.30
2995;DHT22;35277;49.890;8.222;2023-03-23T15:29:13;22.50;67.30
2995;DHT22;35277;49.890;8.222;2023-03-23T15:31:44;22.50;67.30
2995;DHT22;35277;49.890;8.222;2023-03-23T15:34:25;22.50;67.30
2995;DHT22;35277;49.890;8.222;2023-03-23T15:36:55;22.50;67.30
2995;DHT22;35277;49.890;8.222;2023-03-23T15:39:23;22.50;67.40
2995;DHT22;35277;49.890;8.222;2023-03-23T15:41:51;22.50;67.40
2995;DHT22;35277;49.890;8.222;2023-03-23T15:44:27;22.50;67.40
2995;DHT22;35277;49.890;8.222;2023-03-23T15:47:12;22.50;67.40
2995;DHT22;35277;49.890;8.222;2023-03-23T15:49:41;22.50;67.40
2995;DHT22;35277;49.890;8.222;2023-03-23T15:52:10;22.50;67.40
2995;DHT22;35277;49.890;8.222;2023-03-23T15:54:37;22.50;67.40
2995;DHT22;35277;49.890;8.222;2023-03-23T15:57:04;22.50;67.30
2995;DHT22;35277;49.890;8.222;2023-03-23T15:59:31;22.50;67.40
2995;DHT22;35277;49.890;8.222;2023-03-23T16:01:59;22.50;67.40
2995;DHT22;35277;49.890;8.222;2023-03-23T16:04:27;22.50;67.40
2995;DHT22;35277;49.890;8.222;2023-03-23T16:06:57;22.50;67.40
2995;DHT22;35277;49.890;8.222;2023-03-23T16:09:25;22.50;67.40
2995;DHT22;35277;49.890;8.222;2023-03-23T16:11:53;22.50;67.40
2995;DHT22;35277;49.890;8.222;2023-03-23T16:14:21;22.50;67.40
2995;DHT22;35277;49.890;8.222;2023-03-23T16:16:49;22.50;67.50
2995;DHT22;35277;49.890;8.222;2023-03-23T16:19:18;22.50;67.40
2995;DHT22;35277;49.890;8.222;2023-03-23T16:21:49;22.50;67.40
2995;DHT22;35277;49.890;8.222;2023-03-23T16:24:19;22.50;67.40
2995;DHT22;35277;49.890;8.222;2023-03-23T16:26:46;22.50;67.50
2995;DHT22;35277;49.890;8.222;2023-03-23T16:29:16;22.50;67.50
2995;DHT22;35277;49.890;8.222;2023-03-23T16:32:04;22.50;67.50
2995;DHT22;35277;49.890;8.222;2023-03-23T16:34:32;22.50;67.50